sensor_id;sensor_type;location;lat;lon;timestamp;pressure;altitude;pressure_sealevel;temperature;humidity
51928;BME280;37953;52.806;18.270;2022-08-21T00:00:19;100203.31;;;23.96;100.00
51928;BME280;37953;52.806;18.270;2022-08-21T00:03:08;100203.38;;;24.10;100.00
51928;BME280;37953;52.806;18.270;2022-08-21T00:05:41;100195.19;;;23.99;100.00
51928;BME280;37953;52.806;18.270;2022-08-21T00:08:11;100194.63;;;23.94;100.00
51928;BME280;37953;52.806;18.270;2022-08-21T00:10:39;100202.75;;;23.91;100.00
51928;BME280;37953;52.806;18.270;2022-08-21T00:13:05;100194.84;;;23.89;100.00
51928;BME280;37953;52.806;18.270;2022-08-21T00:15:34;100197.63;;;23.88;100.00
51928;BME280;37953;52.806;18.270;2022-08-21T00:18:01;100190.66;;;23.85;100.00
51928;BME280;37953;52.806;18.270;2022-08-21T00:20:33;100194.34;;;23.83;100.00
51928;BME280;37953;52.806;18.270;2022-08-21T00:23:00;100196.31;;;23.79;100.00
51928;BME280;37953;52.806;18.270;2022-08-21T00:25:26;100192.94;;;23.77;100.00
51928;BME280;37953;52.806;18.270;2022-08-21T00:27:54;100191.34;;;23.73;100.00
51928;BME280;37953;52.806;18.270;2022-08-21T00:30:21;100196.81;;;23.70;100.00
51928;BME280;37953;52.806;18.270;2022-08-21T00:32:56;100194.16;;;23.70;100.00
51928;BME280;37953;52.806;18.270;2022-08-21T00:35:30;100196.88;;;23.68;100.00
51928;BME280;37953;52.806;18.270;2022-08-21T00:37:57;100186.56;;;23.64;100.00
51928;BME280;37953;52.806;18.270;2022-08-21T00:40:31;100196.38;;;23.62;100.00
51928;BME280;37953;52.806;18.270;2022-08-21T00:42:57;100186.88;;;23.57;100.00
51928;BME280;37953;52.806;18.270;2022-08-21T00:45:23;100190.50;;;23.56;100.00
51928;BME280;37953;52.806;18.270;2022-08-21T00:47:51;100188.78;;;23.55;100.00
51928;BME280;37953;52.806;18.270;2022-08-21T00:50:18;100193.22;;;23.55;100.00
51928;BME280;37953;52.806;18.270;2022-08-21T00:52:45;100185.28;;;23.55;100.00
51928;BME280;37953;52.806;18.270;2022-08-21T00:55:20;100183.56;;;23.54;100.00
51928;BME280;37953;52.806;18.270;2022-08-21T00:57:54;100174.75;;;23.53;100.00
51928;BME280;37953;52.806;18.270;2022-08-21T01:00:25;100182.88;;;23.50;100.00
51928;BME280;37953;52.806;18.270;2022-08-21T01:02:55;100187.41;;;23.48;100.00
51928;BME280;37953;52.806;18.270;2022-08-21T01:05:21;100182.13;;;23.48;100.00
51928;BME280;37953;52.806;18.270;2022-08-21T01:07:47;100185.78;;;23.46;100.00
51928;BME280;37953;52.806;18.270;2022-08-21T01:10:13;100193.63;;;23.47;100.00
51928;BME280;37953;52.806;18.270;2022-08-21T01:12:40;100183.16;;;23.46;100.00
51928;BME280;37953;52.806;18.270;2022-08-21T01:15:08;100187.41;;;23.48;100.00
51928;BME280;37953;52.806;18.270;2022-08-21T01:17:34;100191.69;;;23.51;100.00
51928;BME280;37953;52.806;18.270;2022-08-21T01:20:06;100193.50;;;23.50;100.00
51928;BME280;37953;52.806;18.270;2022-08-21T01:22:33;100176.81;;;23.48;100.00
51928;BME280;37953;52.806;18.270;2022-08-21T01:24:59;100186.38;;;23.51;100.00
51928;BME280;37953;52.806;18.270;2022-08-21T01:27:25;100181.94;;;23.51;100.00
51928;BME280;37953;52.806;18.270;2022-08-21T01:29:56;100164.47;;;23.47;100.00
51928;BME280;37953;52.806;18.270;2022-08-21T01:32:23;100166.19;;;23.48;100.00
51928;BME280;37953;52.806;18.270;2022-08-21T01:34:51;100174.94;;;23.50;100.00
51928;BME280;37953;52.806;18.270;2022-08-21T01:37:24;100171.50;;;23.48;100.00
51928;BME280;37953;52.806;18.270;2022-08-21T01:39:56;100167.91;;;23.49;100.00
51928;BME280;37953;52.806;18.270;2022-08-21T01:42:22;100164.59;;;23.46;100.00
51928;BME280;37953;52.806;18.270;2022-08-21T01:44:48;100162.00;;;23.44;100.00
51928;BME280;37953;52.806;18.270;2022-08-21T01:47:15;100160.31;;;23.43;100.00
51928;BME280;37953;52.806;18.270;2022-08-21T01:49:43;100157.66;;;23.43;100.00
51928;BME280;37953;52.806;18.270;2022-08-21T01:52:10;100161.25;;;23.42;100.00
51928;BME280;37953;52.806;18.270;2022-08-21T01:54:42;100140.28;;;23.37;100.00
51928;BME280;37953;52.806;18.270;2022-08-21T01:57:09;100149.88;;;23.40;100.00
51928;BME280;37953;52.806;18.270;2022-08-21T01:59:36;100145.53;;;23.39;100.00
51928;BME280;37953;52.806;18.270;2022-08-21T02:02:03;100146.44;;;23.38;100.00
51928;BME280;37953;52.806;18.270;2022-08-21T02:04:30;100143.88;;;23.36;100.00
51928;BME280;37953;52.806;18.270;2022-08-21T02:06:56;100138.81;;;23.32;100.00
51928;BME280;37953;52.806;18.270;2022-08-21T02:09:22;100142.25;;;23.34;100.00
51928;BME280;37953;52.806;18.270;2022-08-21T02:11:54;100141.31;;;23.35;100.00
51928;BME280;37953;52.806;18.270;2022-08-21T02:14:20;100140.63;;;23.31;100.00
51928;BME280;37953;52.806;18.270;2022-08-21T02:16:46;100142.44;;;23.31;100.00
51928;BME280;37953;52.806;18.270;2022-08-21T02:19:16;100144.06;;;23.33;100.00
51928;BME280;37953;52.806;18.270;2022-08-21T02:21:43;100139.69;;;23.32;100.00
51928;BME280;37953;52.806;18.270;2022-08-21T02:24:10;100137.13;;;23.31;100.00
51928;BME280;37953;52.806;18.270;2022-08-21T02:26:37;100132.09;;;23.26;100.00
51928;BME280;37953;52.806;18.270;2022-08-21T02:29:04;100137.28;;;23.28;100.00
51928;BME280;37953;52.806;18.270;2022-08-21T02:31:30;100125.06;;;23.25;100.00
51928;BME280;37953;52.806;18.270;2022-08-21T02:33:57;100118.16;;;23.23;100.00
51928;BME280;37953;52.806;18.270;2022-08-21T02:36:26;100119.00;;;23.23;100.00
51928;BME280;37953;52.806;18.270;2022-08-21T02:38:52;100111.13;;;23.22;100.00
51928;BME280;37953;52.806;18.270;2022-08-21T02:41:20;100116.41;;;23.22;100.00
51928;BME280;37953;52.806;18.270;2022-08-21T02:43:50;100109.44;;;23.21;100.00
51928;BME280;37953;52.806;18.270;2022-08-21T02:46:18;100113.97;;;23.19;100.00
51928;BME280;37953;52.806;18.270;2022-08-21T02:48:49;100102.72;;;23.13;100.00
51928;BME280;37953;52.806;18.270;2022-08-21T02:51:18;100103.63;;;23.14;100.00
51928;BME280;37953;52.806;18.270;2022-08-21T02:53:46;100106.25;;;23.14;100.00
51928;BME280;37953;52.806;18.270;2022-08-21T02:56:16;100096.69;;;23.11;100.00
51928;BME280;37953;52.806;18.270;2022-08-21T02:58:49;100108.16;;;23.12;100.00
51928;BME280;37953;52.806;18.270;2022-08-21T03:01:17;100113.53;;;23.10;100.00
51928;BME280;37953;52.806;18.270;2022-08-21T03:03:45;100114.56;;;23.08;100.00
51928;BME280;37953;52.806;18.270;2022-08-21T03:06:13;100125.22;;;23.06;100.00
51928;BME280;37953;52.806;18.270;2022-08-21T03:08:40;100119.34;;;23.01;100.00
51928;BME280;37953;52.806;18.270;2022-08-21T03:11:06;100131.47;;;23.05;100.00
51928;BME280;37953;52.806;18.270;2022-08-21T03:13:32;100127.09;;;23.04;100.00
51928;BME280;37953;52.806;18.270;2022-08-21T03:15:59;100131.56;;;23.04;100.00
51928;BME280;37953;52.806;18.270;2022-08-21T03:18:28;100126.31;;;23.02;100.00
51928;BME280;37953;52.806;18.270;2022-08-21T03:20:54;100128.16;;;23.00;100.00
51928;BME280;37953;52.806;18.270;2022-08-21T03:23:20;100123.91;;;22.97;100.00
51928;BME280;37953;52.806;18.270;2022-08-21T03:25:47;100118.94;;;22.91;100.00
51928;BME280;37953;52.806;18.270;2022-08-21T03:28:20;100124.94;;;22.95;100.00
51928;BME280;37953;52.806;18.270;2022-08-21T03:30:51;100119.78;;;22.92;100.00
51928;BME280;37953;52.806;18.270;2022-08-21T03:33:23;100121.59;;;22.91;100.00
51928;BME280;37953;52.806;18.270;2022-08-21T03:35:58;100125.06;;;22.92;100.00
51928;BME280;37953;52.806;18.270;2022-08-21T03:38:28;100121.66;;;22.90;100.00
51928;BME280;37953;52.806;18.270;2022-08-21T03:40:54;100125.25;;;22.89;100.00
51928;BME280;37953;52.806;18.270;2022-08-21T03:43:27;100128.81;;;22.88;100.00
51928;BME280;37953;52.806;18.270;2022-08-21T03:45:54;100136.88;;;22.86;100.00
51928;BME280;37953;52.806;18.270;2022-08-21T03:48:20;100136.19;;;22.83;100.00
51928;BME280;37953;52.806;18.270;2022-08-21T03:50:46;100134.44;;;22.82;100.00
51928;BME280;37953;52.806;18.270;2022-08-21T03:53:21;100144.13;;;22.83;100.00
51928;BME280;37953;52.806;18.270;2022-08-21T03:55:49;100135.41;;;22.81;100.00
51928;BME280;37953;52.806;18.270;2022-08-21T03:58:24;100136.19;;;22.83;100.00
51928;BME280;37953;52.806;18.270;2022-08-21T04:00:53;100137.22;;;22.80;100.00
51928;BME280;37953;52.806;18.270;2022-08-21T04:03:20;100147.09;;;22.76;100.00
51928;BME280;37953;52.806;18.270;2022-08-21T04:05:46;100151.47;;;22.77;100.00
51928;BME280;37953;52.806;18.270;2022-08-21T04:08:13;100148.81;;;22.77;100.00
51928;BME280;37953;52.806;18.270;2022-08-21T04:10:43;100159.41;;;22.77;100.00
51928;BME280;37953;52.806;18.270;2022-08-21T04:13:10;100165.50;;;22.80;100.00
51928;BME280;37953;52.806;18.270;2022-08-21T04:15:36;100172.56;;;22.79;100.00
51928;BME280;37953;52.806;18.270;2022-08-21T04:18:03;100169.22;;;22.75;100.00
51928;BME280;37953;52.806;18.270;2022-08-21T04:20:30;100180.59;;;22.77;100.00
51928;BME280;37953;52.806;18.270;2022-08-21T04:22:55;100177.00;;;22.79;100.00
51928;BME280;37953;52.806;18.270;2022-08-21T04:25:23;100177.84;;;22.79;100.00
51928;BME280;37953;52.806;18.270;2022-08-21T04:27:51;100173.44;;;22.80;100.00
51928;BME280;37953;52.806;18.270;2022-08-21T04:30:17;100177.00;;;22.79;100.00
51928;BME280;37953;52.806;18.270;2022-08-21T04:32:45;100182.31;;;22.79;100.00
51928;BME280;37953;52.806;18.270;2022-08-21T04:35:12;100190.19;;;22.80;100.00
51928;BME280;37953;52.806;18.270;2022-08-21T04:37:38;100193.66;;;22.81;100.00
51928;BME280;37953;52.806;18.270;2022-08-21T04:40:09;100194.53;;;22.81;100.00
51928;BME280;37953;52.806;18.270;2022-08-21T04:42:48;100200.78;;;22.80;100.00
51928;BME280;37953;52.806;18.270;2022-08-21T04:45:26;100197.34;;;22.78;100.00
51928;BME280;37953;52.806;18.270;2022-08-21T04:47:57;100200.06;;;22.76;100.00
51928;BME280;37953;52.806;18.270;2022-08-21T04:50:49;100200.91;;;22.77;100.00
51928;BME280;37953;52.806;18.270;2022-08-21T04:53:26;100204.59;;;22.74;100.00
51928;BME280;37953;52.806;18.270;2022-08-21T04:56:20;100208.97;;;22.75;100.00
51928;BME280;37953;52.806;18.270;2022-08-21T04:58:48;100215.41;;;22.70;100.00
51928;BME280;37953;52.806;18.270;2022-08-21T05:01:17;100217.28;;;22.68;100.00
51928;BME280;37953;52.806;18.270;2022-08-21T05:03:52;100223.44;;;22.68;100.00
51928;BME280;37953;52.806;18.270;2022-08-21T05:06:20;100224.28;;;22.69;100.00
51928;BME280;37953;52.806;18.270;2022-08-21T05:08:51;100227.94;;;22.66;100.00
51928;BME280;37953;52.806;18.270;2022-08-21T05:11:18;100222.81;;;22.63;100.00
51928;BME280;37953;52.806;18.270;2022-08-21T05:13:45;100223.84;;;22.61;100.00
51928;BME280;37953;52.806;18.270;2022-08-21T05:16:11;100231.84;;;22.59;100.00
51928;BME280;37953;52.806;18.270;2022-08-21T05:18:37;100226.69;;;22.56;100.00
51928;BME280;37953;52.806;18.270;2022-08-21T05:21:04;100238.84;;;22.60;100.00
51928;BME280;37953;52.806;18.270;2022-08-21T05:23:30;100226.88;;;22.53;100.00
51928;BME280;37953;52.806;18.270;2022-08-21T05:25:56;100239.63;;;22.62;100.00
51928;BME280;37953;52.806;18.270;2022-08-21T05:28:23;100224.75;;;22.60;100.00
51928;BME280;37953;52.806;18.270;2022-08-21T05:30:49;100227.94;;;22.66;100.00
51928;BME280;37953;52.806;18.270;2022-08-21T05:33:15;100221.88;;;22.64;100.00
51928;BME280;37953;52.806;18.270;2022-08-21T05:35:41;100227.09;;;22.66;100.00
51928;BME280;37953;52.806;18.270;2022-08-21T05:38:07;100225.22;;;22.68;100.00
51928;BME280;37953;52.806;18.270;2022-08-21T05:40:33;100229.69;;;22.67;100.00
51928;BME280;37953;52.806;18.270;2022-08-21T05:43:00;100218.56;;;22.61;100.00
51928;BME280;37953;52.806;18.270;2022-08-21T05:45:38;100227.09;;;22.66;100.00
51928;BME280;37953;52.806;18.270;2022-08-21T05:48:08;100225.31;;;22.66;100.00
51928;BME280;37953;52.806;18.270;2022-08-21T05:50:35;100231.56;;;22.65;100.00
51928;BME280;37953;52.806;18.270;2022-08-21T05:53:02;100226.50;;;22.61;100.00
51928;BME280;37953;52.806;18.270;2022-08-21T05:55:28;100225.53;;;22.62;100.00
51928;BME280;37953;52.806;18.270;2022-08-21T05:57:54;100221.19;;;22.61;100.00
51928;BME280;37953;52.806;18.270;2022-08-21T06:00:20;100206.22;;;22.60;100.00
51928;BME280;37953;52.806;18.270;2022-08-21T06:02:52;100204.44;;;22.60;100.00
51928;BME280;37953;52.806;18.270;2022-08-21T06:05:18;100187.78;;;22.58;100.00
51928;BME280;37953;52.806;18.270;2022-08-21T06:07:44;100190.41;;;22.58;100.00
51928;BME280;37953;52.806;18.270;2022-08-21T06:10:10;100186.16;;;22.55;100.00
51928;BME280;37953;52.806;18.270;2022-08-21T06:12:36;100189.63;;;22.56;100.00
51928;BME280;37953;52.806;18.270;2022-08-21T06:15:03;100173.75;;;22.56;100.00
51928;BME280;37953;52.806;18.270;2022-08-21T06:17:29;100181.63;;;22.58;100.00
51928;BME280;37953;52.806;18.270;2022-08-21T06:19:58;100177.28;;;22.56;100.00
51928;BME280;37953;52.806;18.270;2022-08-21T06:22:23;100177.19;;;22.58;100.00
51928;BME280;37953;52.806;18.270;2022-08-21T06:24:49;100171.81;;;22.60;100.00
51928;BME280;37953;52.806;18.270;2022-08-21T06:27:15;100176.09;;;22.62;100.00
51928;BME280;37953;52.806;18.270;2022-08-21T06:29:43;100186.53;;;22.65;100.00
51928;BME280;37953;52.806;18.270;2022-08-21T06:32:12;100184.66;;;22.67;100.00
51928;BME280;37953;52.806;18.270;2022-08-21T06:34:40;100183.72;;;22.68;100.00
51928;BME280;37953;52.806;18.270;2022-08-21T06:37:06;100183.66;;;22.70;100.00
51928;BME280;37953;52.806;18.270;2022-08-21T06:39:33;100185.34;;;22.71;100.00
51928;BME280;37953;52.806;18.270;2022-08-21T06:42:00;100194.94;;;22.73;100.00
51928;BME280;37953;52.806;18.270;2022-08-21T06:44:25;100196.63;;;22.74;100.00
51928;BME280;37953;52.806;18.270;2022-08-21T06:46:58;100193.06;;;22.75;100.00
51928;BME280;37953;52.806;18.270;2022-08-21T06:49:24;100184.41;;;22.72;100.00
51928;BME280;37953;52.806;18.270;2022-08-21T06:51:49;100189.72;;;22.72;100.00
51928;BME280;37953;52.806;18.270;2022-08-21T06:54:16;100206.22;;;22.77;100.00
51928;BME280;37953;52.806;18.270;2022-08-21T06:56:42;100206.22;;;22.77;100.00
51928;BME280;37953;52.806;18.270;2022-08-21T06:59:07;100206.22;;;22.77;100.00
51928;BME280;37953;52.806;18.270;2022-08-21T07:01:33;100205.34;;;22.76;100.00
51928;BME280;37953;52.806;18.270;2022-08-21T07:03:59;100202.78;;;22.75;100.00
51928;BME280;37953;52.806;18.270;2022-08-21T07:06:25;100204.91;;;22.68;100.00
51928;BME280;37953;52.806;18.270;2022-08-21T07:08:51;100213.69;;;22.69;100.00
51928;BME280;37953;52.806;18.270;2022-08-21T07:11:20;100204.03;;;22.68;100.00
51928;BME280;37953;52.806;18.270;2022-08-21T07:13:48;100208.41;;;22.69;100.00
51928;BME280;37953;52.806;18.270;2022-08-21T07:16:14;100204.91;;;22.68;100.00
51928;BME280;37953;52.806;18.270;2022-08-21T07:18:40;100205.84;;;22.67;100.00
51928;BME280;37953;52.806;18.270;2022-08-21T07:21:07;100216.44;;;22.67;100.00
51928;BME280;37953;52.806;18.270;2022-08-21T07:23:37;100204.28;;;22.63;100.00
51928;BME280;37953;52.806;18.270;2022-08-21T07:26:05;100211.22;;;22.66;100.00
51928;BME280;37953;52.806;18.270;2022-08-21T07:28:31;100200.16;;;22.58;100.00
51928;BME280;37953;52.806;18.270;2022-08-21T07:31:00;100195.50;;;22.63;100.00
51928;BME280;37953;52.806;18.270;2022-08-21T07:33:37;100200.69;;;22.64;100.00
51928;BME280;37953;52.806;18.270;2022-08-21T07:36:03;100200.09;;;22.59;100.00
51928;BME280;37953;52.806;18.270;2022-08-21T07:38:29;100201.78;;;22.60;100.00
51928;BME280;37953;52.806;18.270;2022-08-21T07:40:56;100202.75;;;22.59;100.00
51928;BME280;37953;52.806;18.270;2022-08-21T07:43:25;100201.00;;;22.58;100.00
51928;BME280;37953;52.806;18.270;2022-08-21T07:45:54;100210.69;;;22.59;100.00
51928;BME280;37953;52.806;18.270;2022-08-21T07:48:21;100201.31;;;22.52;100.00
51928;BME280;37953;52.806;18.270;2022-08-21T07:51:06;100204.75;;;22.54;100.00
51928;BME280;37953;52.806;18.270;2022-08-21T07:53:33;100204.06;;;22.50;100.00
51928;BME280;37953;52.806;18.270;2022-08-21T07:55:59;100214.41;;;22.55;100.00
51928;BME280;37953;52.806;18.270;2022-08-21T07:58:25;100207.31;;;22.55;100.00
51928;BME280;37953;52.806;18.270;2022-08-21T08:00:51;100200.47;;;22.51;100.00
51928;BME280;37953;52.806;18.270;2022-08-21T08:03:17;100210.91;;;22.54;100.00
51928;BME280;37953;52.806;18.270;2022-08-21T08:05:43;100212.69;;;22.54;100.00
51928;BME280;37953;52.806;18.270;2022-08-21T08:08:09;100205.00;;;22.49;100.00
51928;BME280;37953;52.806;18.270;2022-08-21T08:10:36;100211.00;;;22.53;100.00
51928;BME280;37953;52.806;18.270;2022-08-21T08:13:04;100207.69;;;22.48;100.00
51928;BME280;37953;52.806;18.270;2022-08-21T08:15:30;100215.44;;;22.52;100.00
51928;BME280;37953;52.806;18.270;2022-08-21T08:17:58;100220.63;;;22.54;100.00
51928;BME280;37953;52.806;18.270;2022-08-21T08:20:26;100217.13;;;22.53;100.00
51928;BME280;37953;52.806;18.270;2022-08-21T08:22:53;100218.75;;;22.56;100.00
51928;BME280;37953;52.806;18.270;2022-08-21T08:25:21;100214.34;;;22.56;100.00
51928;BME280;37953;52.806;18.270;2022-08-21T08:27:54;100223.91;;;22.59;100.00
51928;BME280;37953;52.806;18.270;2022-08-21T08:30:21;100228.38;;;22.59;100.00
51928;BME280;37953;52.806;18.270;2022-08-21T08:32:50;100227.66;;;22.55;100.00
51928;BME280;37953;52.806;18.270;2022-08-21T08:35:17;100228.50;;;22.55;100.00
51928;BME280;37953;52.806;18.270;2022-08-21T08:37:44;100226.88;;;22.53;100.00
51928;BME280;37953;52.806;18.270;2022-08-21T08:42:49;100233.88;;;22.54;100.00
51928;BME280;37953;52.806;18.270;2022-08-21T08:45:20;100233.88;;;22.54;100.00
51928;BME280;37953;52.806;18.270;2022-08-21T08:47:58;100229.53;;;22.53;100.00
51928;BME280;37953;52.806;18.270;2022-08-21T08:50:28;100238.78;;;22.62;100.00
51928;BME280;37953;52.806;18.270;2022-08-21T08:53:34;100232.63;;;22.79;100.00
51928;BME280;37953;52.806;18.270;2022-08-21T08:56:05;100243.13;;;22.97;100.00
51928;BME280;37953;52.806;18.270;2022-08-21T08:58:41;100235.59;;;23.07;100.00
51928;BME280;37953;52.806;18.270;2022-08-21T09:01:17;100241.09;;;23.20;100.00
51928;BME280;37953;52.806;18.270;2022-08-21T09:03:48;100235.53;;;23.25;100.00
51928;BME280;37953;52.806;18.270;2022-08-21T09:06:19;100243.81;;;23.34;100.00
51928;BME280;37953;52.806;18.270;2022-08-21T09:12:00;100238.53;;;23.34;100.00
51928;BME280;37953;52.806;18.270;2022-08-21T09:25:42;100239.47;;;22.83;100.00
51928;BME280;37953;52.806;18.270;2022-08-21T09:28:10;100239.78;;;22.76;100.00
51928;BME280;37953;52.806;18.270;2022-08-21T09:30:39;100233.88;;;22.71;100.00
51928;BME280;37953;52.806;18.270;2022-08-21T09:33:06;100231.56;;;22.65;100.00
51928;BME280;37953;52.806;18.270;2022-08-21T09:35:33;100234.44;;;22.61;100.00
51928;BME280;37953;52.806;18.270;2022-08-21T09:38:04;100235.34;;;22.60;100.00
51928;BME280;37953;52.806;18.270;2022-08-21T09:43:17;100232.94;;;22.55;100.00
51928;BME280;37953;52.806;18.270;2022-08-21T09:45:45;100235.97;;;22.47;100.00
51928;BME280;37953;52.806;18.270;2022-08-21T09:48:23;100245.47;;;22.51;100.00
51928;BME280;37953;52.806;18.270;2022-08-21T09:50:52;100236.22;;;22.43;100.00
51928;BME280;37953;52.806;18.270;2022-08-21T09:53:22;100237.78;;;22.47;100.00
51928;BME280;37953;52.806;18.270;2022-08-21T09:55:55;100236.28;;;22.41;100.00
51928;BME280;37953;52.806;18.270;2022-08-21T09:58:43;100239.69;;;22.43;100.00
51928;BME280;37953;52.806;18.270;2022-08-21T10:03:47;100260.19;;;22.40;100.00
51928;BME280;37953;52.806;18.270;2022-08-21T10:06:26;100262.75;;;22.41;100.00
51928;BME280;37953;52.806;18.270;2022-08-21T10:09:08;100258.41;;;22.40;100.00
51928;BME280;37953;52.806;18.270;2022-08-21T10:11:35;100258.47;;;22.39;100.00
51928;BME280;37953;52.806;18.270;2022-08-21T10:23:03;100250.03;;;22.30;100.00
51928;BME280;37953;52.806;18.270;2022-08-21T10:28:42;100264.78;;;22.36;100.00
51928;BME280;37953;52.806;18.270;2022-08-21T10:31:31;100260.41;;;22.35;100.00
51928;BME280;37953;52.806;18.270;2022-08-21T10:36:46;100269.53;;;22.29;100.00
51928;BME280;37953;52.806;18.270;2022-08-21T10:39:50;100262.50;;;22.28;100.00
51928;BME280;37953;52.806;18.270;2022-08-21T10:42:47;100265.94;;;22.30;100.00
51928;BME280;37953;52.806;18.270;2022-08-21T10:48:37;100273.00;;;22.30;100.00
51928;BME280;37953;52.806;18.270;2022-08-21T10:56:32;100270.78;;;22.21;100.00
51928;BME280;37953;52.806;18.270;2022-08-21T10:59:24;100285.47;;;22.28;100.00
51928;BME280;37953;52.806;18.270;2022-08-21T11:04:28;100275.13;;;22.23;100.00
51928;BME280;37953;52.806;18.270;2022-08-21T11:07:14;100285.94;;;22.36;100.00
51928;BME280;37953;52.806;18.270;2022-08-21T11:09:51;100282.03;;;22.26;100.00
51928;BME280;37953;52.806;18.270;2022-08-21T11:12:59;100279.44;;;22.24;100.00
51928;BME280;37953;52.806;18.270;2022-08-21T11:16:05;100280.50;;;22.20;100.00
51928;BME280;37953;52.806;18.270;2022-08-21T11:19:04;100277.78;;;22.22;100.00
51928;BME280;37953;52.806;18.270;2022-08-21T11:21:30;100275.38;;;22.17;100.00
51928;BME280;37953;52.806;18.270;2022-08-21T11:27:17;100263.16;;;22.14;100.00
51928;BME280;37953;52.806;18.270;2022-08-21T11:29:49;100266.72;;;22.13;100.00
51928;BME280;37953;52.806;18.270;2022-08-21T11:43:42;100246.34;;;22.15;100.00
51928;BME280;37953;52.806;18.270;2022-08-21T11:52:28;100241.03;;;22.15;100.00
51928;BME280;37953;52.806;18.270;2022-08-21T11:55:02;100235.06;;;22.12;100.00
51928;BME280;37953;52.806;18.270;2022-08-21T11:57:36;100232.50;;;22.10;100.00
51928;BME280;37953;52.806;18.270;2022-08-21T12:00:19;100229.06;;;22.08;100.00
51928;BME280;37953;52.806;18.270;2022-08-21T12:02:51;100229.34;;;22.02;100.00
51928;BME280;37953;52.806;18.270;2022-08-21T12:05:46;100235.50;;;22.03;100.00
51928;BME280;37953;52.806;18.270;2022-08-21T12:08:37;100244.88;;;22.10;100.00
51928;BME280;37953;52.806;18.270;2022-08-21T12:11:06;100245.94;;;22.06;100.00
51928;BME280;37953;52.806;18.270;2022-08-21T12:13:39;100249.56;;;22.03;100.00
51928;BME280;37953;52.806;18.270;2022-08-21T12:16:15;100252.31;;;22.02;100.00
51928;BME280;37953;52.806;18.270;2022-08-21T12:24:43;100258.38;;;22.04;100.00
51928;BME280;37953;52.806;18.270;2022-08-21T12:28:02;100249.78;;;21.99;100.00
51928;BME280;37953;52.806;18.270;2022-08-21T12:30:05;100254.25;;;21.98;100.00
51928;BME280;37953;52.806;18.270;2022-08-21T12:35:36;100259.53;;;21.98;100.00
51928;BME280;37953;52.806;18.270;2022-08-21T12:38:15;100265.84;;;21.95;100.00
51928;BME280;37953;52.806;18.270;2022-08-21T12:40:47;100255.53;;;21.89;100.00
51928;BME280;37953;52.806;18.270;2022-08-21T12:43:20;100266.13;;;21.89;100.00
51928;BME280;37953;52.806;18.270;2022-08-21T12:45:50;100267.97;;;21.87;100.00
51928;BME280;37953;52.806;18.270;2022-08-21T12:48:31;100271.53;;;21.86;100.00
51928;BME280;37953;52.806;18.270;2022-08-21T12:53:57;100277.78;;;21.85;100.00
51928;BME280;37953;52.806;18.270;2022-08-21T12:56:29;100279.84;;;21.79;100.00
51928;BME280;37953;52.806;18.270;2022-08-21T12:59:07;100282.44;;;21.80;100.00
51928;BME280;37953;52.806;18.270;2022-08-21T13:01:34;100280.69;;;21.79;100.00
51928;BME280;37953;52.806;18.270;2022-08-21T13:04:09;100278.91;;;21.80;100.00
51928;BME280;37953;52.806;18.270;2022-08-21T13:06:45;100285.13;;;21.79;100.00
51928;BME280;37953;52.806;18.270;2022-08-21T13:09:23;100285.19;;;21.77;100.00
51928;BME280;37953;52.806;18.270;2022-08-21T13:12:00;100293.19;;;21.75;100.00
51928;BME280;37953;52.806;18.270;2022-08-21T13:14:30;100292.34;;;21.75;100.00
51928;BME280;37953;52.806;18.270;2022-08-21T13:17:03;100288.91;;;21.73;100.00
51928;BME280;37953;52.806;18.270;2022-08-21T13:19:33;100278.72;;;21.65;100.00
51928;BME280;37953;52.806;18.270;2022-08-21T13:22:03;100294.25;;;21.71;100.00
51928;BME280;37953;52.806;18.270;2022-08-21T13:24:36;100294.41;;;21.68;100.00
51928;BME280;37953;52.806;18.270;2022-08-21T13:27:14;100296.56;;;21.79;100.00
51928;BME280;37953;52.806;18.270;2022-08-21T13:30:14;100295.28;;;21.69;100.00
51928;BME280;37953;52.806;18.270;2022-08-21T13:32:50;100296.44;;;21.63;100.00
51928;BME280;37953;52.806;18.270;2022-08-21T13:35:25;100299.06;;;21.63;100.00
51928;BME280;37953;52.806;18.270;2022-08-21T13:37:52;100288.69;;;21.59;100.00
51928;BME280;37953;52.806;18.270;2022-08-21T13:40:28;100297.56;;;21.58;100.00
51928;BME280;37953;52.806;18.270;2022-08-21T13:42:55;100305.63;;;21.54;100.00
51928;BME280;37953;52.806;18.270;2022-08-21T13:45:31;100306.56;;;21.53;100.00
51928;BME280;37953;52.806;18.270;2022-08-21T13:48:00;100310.09;;;21.52;100.00
51928;BME280;37953;52.806;18.270;2022-08-21T13:50:26;100302.19;;;21.52;100.00
51928;BME280;37953;52.806;18.270;2022-08-21T13:53:02;100309.19;;;21.53;100.00
51928;BME280;37953;52.806;18.270;2022-08-21T13:55:44;100314.34;;;21.57;100.00
51928;BME280;37953;52.806;18.270;2022-08-21T13:58:11;100309.25;;;21.52;100.00
51928;BME280;37953;52.806;18.270;2022-08-21T14:00:51;100310.19;;;21.51;100.00
51928;BME280;37953;52.806;18.270;2022-08-21T14:03:38;100316.34;;;21.51;100.00
51928;BME280;37953;52.806;18.270;2022-08-21T14:06:26;100316.56;;;21.47;100.00
51928;BME280;37953;52.806;18.270;2022-08-21T14:08:58;100330.69;;;21.46;100.00